sensor_id;sensor_type;location;lat;lon;timestamp;P1;durP1;ratioP1;P2;durP2;ratioP2
54805;SDS011;62866;55.776;37.496;2023-03-01T00:02:00;0.30;;;0.30;;
54805;SDS011;62866;55.776;37.496;2023-03-01T00:04:26;1.95;;;0.20;;
54805;SDS011;62866;55.776;37.496;2023-03-01T00:06:52;0.10;;;0.10;;
54805;SDS011;62866;55.776;37.496;2023-03-01T00:09:18;0.10;;;0.10;;
54805;SDS011;62866;55.776;37.496;2023-03-01T00:11:44;1.95;;;0.30;;
54805;SDS011;62866;55.776;37.496;2023-03-01T00:14:09;0.47;;;0.20;;
54805;SDS011;62866;55.776;37.496;2023-03-01T00:16:39;0.75;;;0.40;;
54805;SDS011;62866;55.776;37.496;2023-03-01T00:19:06;0.10;;;0.10;;
54805;SDS011;62866;55.776;37.496;2023-03-01T00:21:34;0.10;;;0.10;;
54805;SDS011;62866;55.776;37.496;2023-03-01T00:24:00;1.80;;;0.38;;
54805;SDS011;62866;55.776;37.496;2023-03-01T00:26:26;0.45;;;0.20;;
54805;SDS011;62866;55.776;37.496;2023-03-01T00:28:53;0.17;;;0.10;;
54805;SDS011;62866;55.776;37.496;2023-03-01T00:31:21;1.00;;;0.80;;
54805;SDS011;62866;55.776;37.496;2023-03-01T00:33:51;0.75;;;0.25;;
54805;SDS011;62866;55.776;37.496;2023-03-01T00:36:18;0.10;;;0.10;;
54805;SDS011;62866;55.776;37.496;2023-03-01T00:38:45;0.10;;;0.10;;
54805;SDS011;62866;55.776;37.496;2023-03-01T00:41:14;0.22;;;0.22;;
54805;SDS011;62866;55.776;37.496;2023-03-01T00:43:41;1.65;;;0.30;;
54805;SDS011;62866;55.776;37.496;2023-03-01T00:46:09;1.17;;;0.38;;
54805;SDS011;62866;55.776;37.496;2023-03-01T00:48:38;0.00;;;0.00;;
54805;SDS011;62866;55.776;37.496;2023-03-01T00:51:08;0.40;;;0.25;;
54805;SDS011;62866;55.776;37.496;2023-03-01T00:53:35;0.88;;;0.30;;
54805;SDS011;62866;55.776;37.496;2023-03-01T00:56:01;0.08;;;0.08;;
54805;SDS011;62866;55.776;37.496;2023-03-01T00:58:28;2.05;;;0.40;;
54805;SDS011;62866;55.776;37.496;2023-03-01T01:00:54;0.73;;;0.40;;
54805;SDS011;62866;55.776;37.496;2023-03-01T01:03:19;0.22;;;0.10;;
54805;SDS011;62866;55.776;37.496;2023-03-01T01:05:45;0.47;;;0.20;;
54805;SDS011;62866;55.776;37.496;2023-03-01T01:08:11;2.38;;;0.40;;
54805;SDS011;62866;55.776;37.496;2023-03-01T01:10:37;0.32;;;0.25;;
54805;SDS011;62866;55.776;37.496;2023-03-01T01:13:03;0.20;;;0.20;;
54805;SDS011;62866;55.776;37.496;2023-03-01T01:15:29;0.10;;;0.10;;
54805;SDS011;62866;55.776;37.496;2023-03-01T01:17:58;0.60;;;0.10;;
54805;SDS011;62866;55.776;37.496;2023-03-01T01:20:24;0.60;;;0.30;;
54805;SDS011;62866;55.776;37.496;2023-03-01T01:22:49;0.10;;;0.10;;
54805;SDS011;62866;55.776;37.496;2023-03-01T01:25:16;0.20;;;0.20;;
54805;SDS011;62866;55.776;37.496;2023-03-01T01:27:42;0.63;;;0.20;;
54805;SDS011;62866;55.776;37.496;2023-03-01T01:30:08;0.35;;;0.25;;
54805;SDS011;62866;55.776;37.496;2023-03-01T01:32:34;1.25;;;0.32;;
54805;SDS011;62866;55.776;37.496;2023-03-01T01:34:59;0.20;;;0.20;;
54805;SDS011;62866;55.776;37.496;2023-03-01T01:37:25;0.10;;;0.10;;
54805;SDS011;62866;55.776;37.496;2023-03-01T01:39:56;0.38;;;0.20;;
54805;SDS011;62866;55.776;37.496;2023-03-01T01:42:24;0.10;;;0.10;;
54805;SDS011;62866;55.776;37.496;2023-03-01T01:45:15;0.65;;;0.22;;
54805;SDS011;62866;55.776;37.496;2023-03-01T01:47:51;0.40;;;0.40;;
54805;SDS011;62866;55.776;37.496;2023-03-01T01:50:19;0.00;;;0.00;;
54805;SDS011;62866;55.776;37.496;2023-03-01T01:52:45;0.10;;;0.10;;
54805;SDS011;62866;55.776;37.496;2023-03-01T01:55:18;1.85;;;0.20;;
54805;SDS011;62866;55.776;37.496;2023-03-01T01:57:49;0.10;;;0.10;;
54805;SDS011;62866;55.776;37.496;2023-03-01T02:00:27;0.55;;;0.35;;
54805;SDS011;62866;55.776;37.496;2023-03-01T02:02:55;0.10;;;0.10;;
54805;SDS011;62866;55.776;37.496;2023-03-01T02:08:11;0.22;;;0.20;;
54805;SDS011;62866;55.776;37.496;2023-03-01T02:10:38;1.10;;;0.10;;
54805;SDS011;62866;55.776;37.496;2023-03-01T02:13:05;0.20;;;0.20;;
54805;SDS011;62866;55.776;37.496;2023-03-01T02:15:32;0.32;;;0.10;;
54805;SDS011;62866;55.776;37.496;2023-03-01T02:18:00;0.10;;;0.10;;
54805;SDS011;62866;55.776;37.496;2023-03-01T02:23:13;0.10;;;0.10;;
54805;SDS011;62866;55.776;37.496;2023-03-01T02:30:52;0.32;;;0.05;;
54805;SDS011;62866;55.776;37.496;2023-03-01T02:33:37;0.00;;;0.00;;
54805;SDS011;62866;55.776;37.496;2023-03-01T02:36:04;0.00;;;0.00;;
54805;SDS011;62866;55.776;37.496;2023-03-01T02:38:34;0.20;;;0.20;;
54805;SDS011;62866;55.776;37.496;2023-03-01T02:40:59;1.08;;;0.20;;
54805;SDS011;62866;55.776;37.496;2023-03-01T02:43:27;0.15;;;0.13;;
54805;SDS011;62866;55.776;37.496;2023-03-01T02:45:57;0.10;;;0.10;;
54805;SDS011;62866;55.776;37.496;2023-03-01T02:48:27;0.00;;;0.00;;
54805;SDS011;62866;55.776;37.496;2023-03-01T02:53:39;0.03;;;0.03;;
54805;SDS011;62866;55.776;37.496;2023-03-01T02:56:16;4.13;;;0.22;;
54805;SDS011;62866;55.776;37.496;2023-03-01T02:58:41;0.00;;;0.00;;
54805;SDS011;62866;55.776;37.496;2023-03-01T03:01:16;0.05;;;0.05;;
54805;SDS011;62866;55.776;37.496;2023-03-01T03:03:42;0.22;;;0.22;;
54805;SDS011;62866;55.776;37.496;2023-03-01T03:06:08;0.35;;;0.08;;
54805;SDS011;62866;55.776;37.496;2023-03-01T03:08:34;0.10;;;0.10;;
54805;SDS011;62866;55.776;37.496;2023-03-01T03:10:59;0.52;;;0.20;;
54805;SDS011;62866;55.776;37.496;2023-03-01T03:13:25;0.00;;;0.00;;
54805;SDS011;62866;55.776;37.496;2023-03-01T03:15:54;0.03;;;0.03;;
54805;SDS011;62866;55.776;37.496;2023-03-01T03:18:21;0.10;;;0.10;;
54805;SDS011;62866;55.776;37.496;2023-03-01T03:20:47;1.17;;;0.20;;
54805;SDS011;62866;55.776;37.496;2023-03-01T03:23:17;0.50;;;0.40;;
54805;SDS011;62866;55.776;37.496;2023-03-01T03:25:44;0.45;;;0.20;;
54805;SDS011;62866;55.776;37.496;2023-03-01T03:28:12;0.68;;;0.68;;
54805;SDS011;62866;55.776;37.496;2023-03-01T03:30:39;2.15;;;0.30;;
54805;SDS011;62866;55.776;37.496;2023-03-01T03:33:06;0.10;;;0.10;;
54805;SDS011;62866;55.776;37.496;2023-03-01T03:35:33;0.22;;;0.22;;
54805;SDS011;62866;55.776;37.496;2023-03-01T03:38:07;0.10;;;0.10;;
54805;SDS011;62866;55.776;37.496;2023-03-01T03:40:41;3.70;;;0.30;;
54805;SDS011;62866;55.776;37.496;2023-03-01T03:43:14;0.80;;;0.40;;
54805;SDS011;62866;55.776;37.496;2023-03-01T03:45:47;0.70;;;0.38;;
54805;SDS011;62866;55.776;37.496;2023-03-01T03:48:14;0.00;;;0.00;;
54805;SDS011;62866;55.776;37.496;2023-03-01T03:50:41;0.88;;;0.35;;
54805;SDS011;62866;55.776;37.496;2023-03-01T03:53:08;0.00;;;0.00;;
54805;SDS011;62866;55.776;37.496;2023-03-01T03:55:35;0.35;;;0.30;;
54805;SDS011;62866;55.776;37.496;2023-03-01T03:58:04;1.77;;;0.50;;
54805;SDS011;62866;55.776;37.496;2023-03-01T04:00:35;0.20;;;0.20;;
54805;SDS011;62866;55.776;37.496;2023-03-01T04:03:02;0.05;;;0.05;;
54805;SDS011;62866;55.776;37.496;2023-03-01T04:05:27;2.70;;;0.10;;
54805;SDS011;62866;55.776;37.496;2023-03-01T04:07:54;0.30;;;0.20;;
54805;SDS011;62866;55.776;37.496;2023-03-01T04:10:26;0.10;;;0.10;;
54805;SDS011;62866;55.776;37.496;2023-03-01T04:12:56;0.00;;;0.00;;
54805;SDS011;62866;55.776;37.496;2023-03-01T04:15:22;0.10;;;0.10;;
54805;SDS011;62866;55.776;37.496;2023-03-01T04:17:49;0.68;;;0.17;;
54805;SDS011;62866;55.776;37.496;2023-03-01T04:20:22;6.30;;;0.22;;
54805;SDS011;62866;55.776;37.496;2023-03-01T04:22:57;0.00;;;0.00;;
54805;SDS011;62866;55.776;37.496;2023-03-01T04:25:33;0.03;;;0.03;;
54805;SDS011;62866;55.776;37.496;2023-03-01T04:27:59;0.30;;;0.20;;
54805;SDS011;62866;55.776;37.496;2023-03-01T04:30:24;2.90;;;0.55;;
54805;SDS011;62866;55.776;37.496;2023-03-01T04:32:50;0.13;;;0.13;;
54805;SDS011;62866;55.776;37.496;2023-03-01T04:35:15;0.10;;;0.10;;
54805;SDS011;62866;55.776;37.496;2023-03-01T04:37:41;0.85;;;0.47;;
54805;SDS011;62866;55.776;37.496;2023-03-01T04:40:07;0.47;;;0.10;;
54805;SDS011;62866;55.776;37.496;2023-03-01T04:42:41;0.45;;;0.10;;
54805;SDS011;62866;55.776;37.496;2023-03-01T04:45:07;0.20;;;0.20;;
54805;SDS011;62866;55.776;37.496;2023-03-01T04:47:41;0.13;;;0.13;;
54805;SDS011;62866;55.776;37.496;2023-03-01T04:50:10;0.15;;;0.15;;
54805;SDS011;62866;55.776;37.496;2023-03-01T04:52:37;0.13;;;0.13;;
54805;SDS011;62866;55.776;37.496;2023-03-01T04:55:03;0.20;;;0.20;;
54805;SDS011;62866;55.776;37.496;2023-03-01T04:57:30;0.20;;;0.20;;
54805;SDS011;62866;55.776;37.496;2023-03-01T04:59:55;0.10;;;0.10;;
54805;SDS011;62866;55.776;37.496;2023-03-01T05:02:21;0.57;;;0.43;;
54805;SDS011;62866;55.776;37.496;2023-03-01T05:04:47;0.38;;;0.38;;
54805;SDS011;62866;55.776;37.496;2023-03-01T05:07:12;0.00;;;0.00;;
54805;SDS011;62866;55.776;37.496;2023-03-01T05:09:47;1.40;;;0.20;;
54805;SDS011;62866;55.776;37.496;2023-03-01T05:12:13;3.22;;;0.52;;
54805;SDS011;62866;55.776;37.496;2023-03-01T05:14:39;1.13;;;0.38;;
54805;SDS011;62866;55.776;37.496;2023-03-01T05:17:06;0.80;;;0.40;;
54805;SDS011;62866;55.776;37.496;2023-03-01T05:19:31;0.50;;;0.50;;
54805;SDS011;62866;55.776;37.496;2023-03-01T05:21:58;2.05;;;0.47;;
54805;SDS011;62866;55.776;37.496;2023-03-01T05:24:26;0.30;;;0.30;;
54805;SDS011;62866;55.776;37.496;2023-03-01T05:26:53;4.68;;;0.38;;
54805;SDS011;62866;55.776;37.496;2023-03-01T05:29:19;2.17;;;0.30;;
54805;SDS011;62866;55.776;37.496;2023-03-01T05:31:55;0.20;;;0.20;;
54805;SDS011;62866;55.776;37.496;2023-03-01T05:34:27;0.45;;;0.30;;
54805;SDS011;62866;55.776;37.496;2023-03-01T05:36:54;0.15;;;0.13;;
54805;SDS011;62866;55.776;37.496;2023-03-01T05:39:20;0.35;;;0.35;;
54805;SDS011;62866;55.776;37.496;2023-03-01T05:41:48;0.43;;;0.10;;
54805;SDS011;62866;55.776;37.496;2023-03-01T05:44:16;0.55;;;0.55;;
54805;SDS011;62866;55.776;37.496;2023-03-01T05:46:42;0.30;;;0.30;;
54805;SDS011;62866;55.776;37.496;2023-03-01T05:49:08;1.05;;;0.15;;
54805;SDS011;62866;55.776;37.496;2023-03-01T05:51:33;0.20;;;0.20;;
54805;SDS011;62866;55.776;37.496;2023-03-01T05:53:59;0.30;;;0.30;;
54805;SDS011;62866;55.776;37.496;2023-03-01T05:56:24;0.52;;;0.30;;
54805;SDS011;62866;55.776;37.496;2023-03-01T05:58:50;0.85;;;0.50;;
54805;SDS011;62866;55.776;37.496;2023-03-01T06:01:16;2.25;;;0.60;;
54805;SDS011;62866;55.776;37.496;2023-03-01T06:03:41;0.30;;;0.30;;
54805;SDS011;62866;55.776;37.496;2023-03-01T06:06:07;3.40;;;0.38;;
54805;SDS011;62866;55.776;37.496;2023-03-01T06:08:33;1.50;;;0.30;;
54805;SDS011;62866;55.776;37.496;2023-03-01T06:10:58;0.10;;;0.10;;
54805;SDS011;62866;55.776;37.496;2023-03-01T06:13:24;0.95;;;0.40;;
54805;SDS011;62866;55.776;37.496;2023-03-01T06:15:50;0.82;;;0.35;;
54805;SDS011;62866;55.776;37.496;2023-03-01T06:18:15;1.67;;;0.98;;
54805;SDS011;62866;55.776;37.496;2023-03-01T06:20:41;6.05;;;0.70;;
54805;SDS011;62866;55.776;37.496;2023-03-01T06:23:06;0.10;;;0.10;;
54805;SDS011;62866;55.776;37.496;2023-03-01T06:25:32;1.08;;;0.50;;
54805;SDS011;62866;55.776;37.496;2023-03-01T06:27:58;0.98;;;0.60;;
54805;SDS011;62866;55.776;37.496;2023-03-01T06:30:24;1.45;;;0.60;;
54805;SDS011;62866;55.776;37.496;2023-03-01T06:32:51;0.68;;;0.52;;
54805;SDS011;62866;55.776;37.496;2023-03-01T06:35:17;0.30;;;0.30;;
54805;SDS011;62866;55.776;37.496;2023-03-01T06:37:44;1.17;;;0.57;;
54805;SDS011;62866;55.776;37.496;2023-03-01T06:40:11;0.52;;;0.40;;
54805;SDS011;62866;55.776;37.496;2023-03-01T06:42:39;0.98;;;0.50;;
54805;SDS011;62866;55.776;37.496;2023-03-01T06:45:06;3.28;;;0.98;;
54805;SDS011;62866;55.776;37.496;2023-03-01T06:47:33;0.47;;;0.47;;
54805;SDS011;62866;55.776;37.496;2023-03-01T06:49:59;0.80;;;0.80;;
54805;SDS011;62866;55.776;37.496;2023-03-01T06:52:25;0.40;;;0.40;;
54805;SDS011;62866;55.776;37.496;2023-03-01T06:54:51;2.58;;;0.80;;
54805;SDS011;62866;55.776;37.496;2023-03-01T06:57:17;0.50;;;0.50;;
54805;SDS011;62866;55.776;37.496;2023-03-01T06:59:43;1.75;;;0.73;;
54805;SDS011;62866;55.776;37.496;2023-03-01T07:02:11;1.63;;;0.60;;
54805;SDS011;62866;55.776;37.496;2023-03-01T07:04:38;2.03;;;0.75;;
54805;SDS011;62866;55.776;37.496;2023-03-01T07:07:04;2.17;;;0.55;;
54805;SDS011;62866;55.776;37.496;2023-03-01T07:09:30;2.90;;;0.98;;
54805;SDS011;62866;55.776;37.496;2023-03-01T07:11:56;1.70;;;0.80;;
54805;SDS011;62866;55.776;37.496;2023-03-01T07:14:22;2.80;;;0.85;;
54805;SDS011;62866;55.776;37.496;2023-03-01T07:16:50;1.42;;;0.63;;
54805;SDS011;62866;55.776;37.496;2023-03-01T07:19:16;1.35;;;0.70;;
54805;SDS011;62866;55.776;37.496;2023-03-01T07:21:42;1.08;;;0.90;;
54805;SDS011;62866;55.776;37.496;2023-03-01T07:24:08;3.53;;;0.98;;
54805;SDS011;62866;55.776;37.496;2023-03-01T07:26:33;1.77;;;0.90;;
54805;SDS011;62866;55.776;37.496;2023-03-01T07:29:00;0.85;;;0.85;;
54805;SDS011;62866;55.776;37.496;2023-03-01T07:31:26;2.08;;;1.10;;
54805;SDS011;62866;55.776;37.496;2023-03-01T07:33:53;2.15;;;1.00;;
54805;SDS011;62866;55.776;37.496;2023-03-01T07:36:22;1.45;;;0.95;;
54805;SDS011;62866;55.776;37.496;2023-03-01T07:38:49;2.17;;;1.02;;
54805;SDS011;62866;55.776;37.496;2023-03-01T07:41:15;2.22;;;0.75;;
54805;SDS011;62866;55.776;37.496;2023-03-01T07:43:41;1.58;;;1.10;;
54805;SDS011;62866;55.776;37.496;2023-03-01T07:46:06;0.70;;;0.60;;
54805;SDS011;62866;55.776;37.496;2023-03-01T07:48:32;4.13;;;0.90;;
54805;SDS011;62866;55.776;37.496;2023-03-01T07:50:59;1.55;;;1.00;;
54805;SDS011;62866;55.776;37.496;2023-03-01T07:53:25;1.48;;;1.17;;
54805;SDS011;62866;55.776;37.496;2023-03-01T07:56:01;3.10;;;1.27;;
54805;SDS011;62866;55.776;37.496;2023-03-01T07:58:28;2.45;;;1.15;;
54805;SDS011;62866;55.776;37.496;2023-03-01T08:00:53;1.75;;;1.13;;
54805;SDS011;62866;55.776;37.496;2023-03-01T08:03:19;3.10;;;1.20;;
54805;SDS011;62866;55.776;37.496;2023-03-01T08:05:44;2.20;;;1.30;;
54805;SDS011;62866;55.776;37.496;2023-03-01T08:08:10;1.17;;;0.95;;
54805;SDS011;62866;55.776;37.496;2023-03-01T08:10:35;1.17;;;0.93;;
54805;SDS011;62866;55.776;37.496;2023-03-01T08:13:02;1.63;;;0.90;;
54805;SDS011;62866;55.776;37.496;2023-03-01T08:15:27;2.15;;;1.13;;
54805;SDS011;62866;55.776;37.496;2023-03-01T08:17:53;1.48;;;1.02;;
54805;SDS011;62866;55.776;37.496;2023-03-01T08:20:18;2.28;;;1.23;;
54805;SDS011;62866;55.776;37.496;2023-03-01T08:22:44;1.20;;;0.70;;
54805;SDS011;62866;55.776;37.496;2023-03-01T08:25:09;2.15;;;1.42;;
54805;SDS011;62866;55.776;37.496;2023-03-01T08:27:35;3.05;;;0.98;;
54805;SDS011;62866;55.776;37.496;2023-03-01T08:30:00;2.25;;;1.08;;
54805;SDS011;62866;55.776;37.496;2023-03-01T08:32:26;1.83;;;0.95;;
54805;SDS011;62866;55.776;37.496;2023-03-01T08:34:52;2.03;;;1.20;;
54805;SDS011;62866;55.776;37.496;2023-03-01T08:37:17;1.13;;;0.85;;
54805;SDS011;62866;55.776;37.496;2023-03-01T08:39:43;1.77;;;1.00;;
54805;SDS011;62866;55.776;37.496;2023-03-01T08:42:08;1.20;;;0.80;;
54805;SDS011;62866;55.776;37.496;2023-03-01T08:44:34;2.80;;;1.00;;
54805;SDS011;62866;55.776;37.496;2023-03-01T08:47:00;2.92;;;1.20;;
54805;SDS011;62866;55.776;37.496;2023-03-01T08:49:27;2.75;;;1.13;;
54805;SDS011;62866;55.776;37.496;2023-03-01T08:51:52;5.40;;;0.88;;
54805;SDS011;62866;55.776;37.496;2023-03-01T08:54:20;1.15;;;1.00;;
54805;SDS011;62866;55.776;37.496;2023-03-01T08:56:46;1.60;;;1.10;;
54805;SDS011;62866;55.776;37.496;2023-03-01T08:59:13;2.22;;;1.00;;
54805;SDS011;62866;55.776;37.496;2023-03-01T09:01:40;2.20;;;1.00;;
54805;SDS011;62866;55.776;37.496;2023-03-01T09:04:08;2.17;;;1.17;;
54805;SDS011;62866;55.776;37.496;2023-03-01T09:06:34;0.82;;;0.77;;
54805;SDS011;62866;55.776;37.496;2023-03-01T09:09:00;2.45;;;1.55;;
54805;SDS011;62866;55.776;37.496;2023-03-01T09:11:27;1.35;;;0.90;;
54805;SDS011;62866;55.776;37.496;2023-03-01T09:13:53;3.10;;;1.10;;
54805;SDS011;62866;55.776;37.496;2023-03-01T09:16:20;1.08;;;1.00;;
54805;SDS011;62866;55.776;37.496;2023-03-01T09:18:51;0.70;;;0.70;;
54805;SDS011;62866;55.776;37.496;2023-03-01T09:21:18;1.10;;;0.85;;
54805;SDS011;62866;55.776;37.496;2023-03-01T09:23:46;2.17;;;0.90;;
54805;SDS011;62866;55.776;37.496;2023-03-01T09:26:16;1.88;;;1.00;;
54805;SDS011;62866;55.776;37.496;2023-03-01T09:28:47;1.52;;;0.75;;
54805;SDS011;62866;55.776;37.496;2023-03-01T09:31:14;2.17;;;0.60;;
54805;SDS011;62866;55.776;37.496;2023-03-01T09:33:41;1.05;;;0.60;;
54805;SDS011;62866;55.776;37.496;2023-03-01T09:36:13;1.30;;;0.63;;
54805;SDS011;62866;55.776;37.496;2023-03-01T09:38:43;2.97;;;0.90;;
54805;SDS011;62866;55.776;37.496;2023-03-01T09:41:24;1.42;;;0.70;;
54805;SDS011;62866;55.776;37.496;2023-03-01T09:44:01;0.17;;;0.17;;
54805;SDS011;62866;55.776;37.496;2023-03-01T09:46:35;0.98;;;0.68;;
54805;SDS011;62866;55.776;37.496;2023-03-01T09:49:10;0.90;;;0.40;;
54805;SDS011;62866;55.776;37.496;2023-03-01T09:51:42;1.25;;;0.45;;
54805;SDS011;62866;55.776;37.496;2023-03-01T09:54:12;0.93;;;0.57;;
54805;SDS011;62866;55.776;37.496;2023-03-01T10:05:43;0.70;;;0.38;;
54805;SDS011;62866;55.776;37.496;2023-03-01T10:10:54;0.63;;;0.60;;
54805;SDS011;62866;55.776;37.496;2023-03-01T10:18:27;2.42;;;0.98;;
54805;SDS011;62866;55.776;37.496;2023-03-01T10:21:00;0.57;;;0.35;;
54805;SDS011;62866;55.776;37.496;2023-03-01T10:23:29;0.82;;;0.40;;
54805;SDS011;62866;55.776;37.496;2023-03-01T10:31:32;1.17;;;0.60;;
54805;SDS011;62866;55.776;37.496;2023-03-01T10:34:17;0.68;;;0.30;;
54805;SDS011;62866;55.776;37.496;2023-03-01T10:36:49;2.28;;;0.57;;
54805;SDS011;62866;55.776;37.496;2023-03-01T10:39:17;0.70;;;0.70;;
54805;SDS011;62866;55.776;37.496;2023-03-01T10:41:52;0.75;;;0.30;;
54805;SDS011;62866;55.776;37.496;2023-03-01T10:44:40;0.20;;;0.20;;
54805;SDS011;62866;55.776;37.496;2023-03-01T10:49:55;2.10;;;0.50;;
54805;SDS011;62866;55.776;37.496;2023-03-01T10:52:21;0.73;;;0.40;;
54805;SDS011;62866;55.776;37.496;2023-03-01T10:57:38;1.67;;;0.55;;
54805;SDS011;62866;55.776;37.496;2023-03-01T11:02:42;2.78;;;0.50;;
54805;SDS011;62866;55.776;37.496;2023-03-01T11:07:54;0.22;;;0.22;;
54805;SDS011;62866;55.776;37.496;2023-03-01T11:10:23;0.95;;;0.40;;
54805;SDS011;62866;55.776;37.496;2023-03-01T11:12:50;2.13;;;0.47;;
54805;SDS011;62866;55.776;37.496;2023-03-01T11:15:26;0.75;;;0.38;;
54805;SDS011;62866;55.776;37.496;2023-03-01T11:17:54;1.65;;;0.50;;
54805;SDS011;62866;55.776;37.496;2023-03-01T11:22:54;1.38;;;0.57;;
54805;SDS011;62866;55.776;37.496;2023-03-01T11:25:24;2.50;;;0.68;;
54805;SDS011;62866;55.776;37.496;2023-03-01T11:27:56;0.63;;;0.40;;
54805;SDS011;62866;55.776;37.496;2023-03-01T11:30:31;2.95;;;0.50;;
54805;SDS011;62866;55.776;37.496;2023-03-01T11:36:17;0.40;;;0.40;;
54805;SDS011;62866;55.776;37.496;2023-03-01T11:38:35;0.20;;;0.20;;
54805;SDS011;62866;55.776;37.496;2023-03-01T11:41:20;1.23;;;0.30;;
54805;SDS011;62866;55.776;37.496;2023-03-01T11:43:56;0.55;;;0.40;;
54805;SDS011;62866;55.776;37.496;2023-03-01T11:58:27;0.52;;;0.30;;
54805;SDS011;62866;55.776;37.496;2023-03-01T12:03:50;2.08;;;0.60;;
54805;SDS011;62866;55.776;37.496;2023-03-01T12:20:29;2.50;;;0.30;;
54805;SDS011;62866;55.776;37.496;2023-03-01T12:31:44;0.40;;;0.40;;
54805;SDS011;62866;55.776;37.496;2023-03-01T12:47:58;0.20;;;0.20;;
54805;SDS011;62866;55.776;37.496;2023-03-01T12:50:51;0.52;;;0.30;;
54805;SDS011;62866;55.776;37.496;2023-03-01T12:53:23;0.10;;;0.10;;
54805;SDS011;62866;55.776;37.496;2023-03-01T12:55:56;0.43;;;0.40;;
54805;SDS011;62866;55.776;37.496;2023-03-01T12:58:33;0.20;;;0.15;;
54805;SDS011;62866;55.776;37.496;2023-03-01T13:01:25;1.65;;;0.28;;
54805;SDS011;62866;55.776;37.496;2023-03-01T13:06:35;2.65;;;0.57;;
54805;SDS011;62866;55.776;37.496;2023-03-01T13:11:53;0.20;;;0.10;;
54805;SDS011;62866;55.776;37.496;2023-03-01T13:16:51;0.30;;;0.30;;
54805;SDS011;62866;55.776;37.496;2023-03-01T13:19:18;0.20;;;0.20;;
54805;SDS011;62866;55.776;37.496;2023-03-01T13:21:46;1.52;;;0.50;;
54805;SDS011;62866;55.776;37.496;2023-03-01T13:32:34;0.95;;;0.85;;
54805;SDS011;62866;55.776;37.496;2023-03-01T13:35:48;0.43;;;0.43;;
54805;SDS011;62866;55.776;37.496;2023-03-01T13:37:51;2.45;;;0.82;;
54805;SDS011;62866;55.776;37.496;2023-03-01T13:45:20;3.13;;;0.60;;
54805;SDS011;62866;55.776;37.496;2023-03-01T13:47:54;0.55;;;0.40;;
54805;SDS011;62866;55.776;37.496;2023-03-01T13:50:24;3.30;;;0.50;;
54805;SDS011;62866;55.776;37.496;2023-03-01T13:52:53;0.10;;;0.10;;
54805;SDS011;62866;55.776;37.496;2023-03-01T13:58:18;1.55;;;0.30;;
54805;SDS011;62866;55.776;37.496;2023-03-01T14:00:47;2.05;;;0.47;;
54805;SDS011;62866;55.776;37.496;2023-03-01T14:03:19;1.45;;;0.50;;
54805;SDS011;62866;55.776;37.496;2023-03-01T14:08:29;1.02;;;0.45;;
54805;SDS011;62866;55.776;37.496;2023-03-01T14:21:33;0.30;;;0.30;;
54805;SDS011;62866;55.776;37.496;2023-03-01T14:24:00;2.17;;;0.93;;
54805;SDS011;62866;55.776;37.496;2023-03-01T14:26:25;0.95;;;0.95;;
54805;SDS011;62866;55.776;37.496;2023-03-01T14:28:51;0.98;;;0.60;;
54805;SDS011;62866;55.776;37.496;2023-03-01T14:31:31;7.53;;;0.50;;
54805;SDS011;62866;55.776;37.496;2023-03-01T14:33:58;0.28;;;0.28;;
54805;SDS011;62866;55.776;37.496;2023-03-01T14:36:28;1.92;;;0.70;;
54805;SDS011;62866;55.776;37.496;2023-03-01T14:41:34;1.08;;;0.60;;
54805;SDS011;62866;55.776;37.496;2023-03-01T14:46:38;0.80;;;0.50;;
54805;SDS011;62866;55.776;37.496;2023-03-01T14:49:21;1.15;;;0.70;;
54805;SDS011;62866;55.776;37.496;2023-03-01T14:51:54;1.90;;;0.70;;
54805;SDS011;62866;55.776;37.496;2023-03-01T14:56:51;0.68;;;0.40;;
54805;SDS011;62866;55.776;37.496;2023-03-01T14:59:19;0.13;;;0.13;;
54805;SDS011;62866;55.776;37.496;2023-03-01T15:01:48;1.25;;;0.80;;
54805;SDS011;62866;55.776;37.496;2023-03-01T15:04:21;0.68;;;0.40;;
54805;SDS011;62866;55.776;37.496;2023-03-01T15:06:50;2.25;;;0.55;;
54805;SDS011;62866;55.776;37.496;2023-03-01T15:09:17;0.22;;;0.20;;
54805;SDS011;62866;55.776;37.496;2023-03-01T15:11:43;0.40;;;0.40;;
54805;SDS011;62866;55.776;37.496;2023-03-01T15:14:25;0.30;;;0.30;;
54805;SDS011;62866;55.776;37.496;2023-03-01T15:16:52;1.23;;;0.60;;
54805;SDS011;62866;55.776;37.496;2023-03-01T15:19:18;1.80;;;0.60;;
54805;SDS011;62866;55.776;37.496;2023-03-01T15:21:44;0.20;;;0.17;;
54805;SDS011;62866;55.776;37.496;2023-03-01T15:26:51;0.60;;;0.50;;
54805;SDS011;62866;55.776;37.496;2023-03-01T15:29:29;0.60;;;0.57;;
54805;SDS011;62866;55.776;37.496;2023-03-01T15:34:35;1.92;;;0.45;;
54805;SDS011;62866;55.776;37.496;2023-03-01T15:37:04;0.73;;;0.60;;
54805;SDS011;62866;55.776;37.496;2023-03-01T15:39:35;2.67;;;0.85;;
54805;SDS011;62866;55.776;37.496;2023-03-01T15:42:46;1.33;;;0.65;;
54805;SDS011;62866;55.776;37.496;2023-03-01T15:45:07;0.25;;;0.22;;
54805;SDS011;62866;55.776;37.496;2023-03-01T15:47:57;1.40;;;0.65;;
54805;SDS011;62866;55.776;37.496;2023-03-01T15:50:30;1.27;;;0.20;;
54805;SDS011;62866;55.776;37.496;2023-03-01T15:53:01;2.03;;;0.70;;
54805;SDS011;62866;55.776;37.496;2023-03-01T15:55:36;0.35;;;0.30;;
54805;SDS011;62866;55.776;37.496;2023-03-01T15:58:05;1.58;;;0.93;;
54805;SDS011;62866;55.776;37.496;2023-03-01T16:00:37;0.70;;;0.32;;
54805;SDS011;62866;55.776;37.496;2023-03-01T16:03:04;0.50;;;0.38;;
54805;SDS011;62866;55.776;37.496;2023-03-01T16:05:31;0.65;;;0.40;;
54805;SDS011;62866;55.776;37.496;2023-03-01T16:07:59;0.38;;;0.30;;
54805;SDS011;62866;55.776;37.496;2023-03-01T16:10:25;0.63;;;0.40;;
54805;SDS011;62866;55.776;37.496;2023-03-01T16:12:51;0.82;;;0.40;;
54805;SDS011;62866;55.776;37.496;2023-03-01T16:15:24;0.13;;;0.13;;
54805;SDS011;62866;55.776;37.496;2023-03-01T16:17:57;1.05;;;0.70;;
54805;SDS011;62866;55.776;37.496;2023-03-01T16:20:26;0.20;;;0.15;;
54805;SDS011;62866;55.776;37.496;2023-03-01T16:22:53;3.17;;;0.25;;
54805;SDS011;62866;55.776;37.496;2023-03-01T16:25:20;0.52;;;0.38;;
54805;SDS011;62866;55.776;37.496;2023-03-01T16:27:47;0.57;;;0.40;;
54805;SDS011;62866;55.776;37.496;2023-03-01T16:30:14;3.55;;;0.50;;
54805;SDS011;62866;55.776;37.496;2023-03-01T16:32:42;1.35;;;0.52;;
54805;SDS011;62866;55.776;37.496;2023-03-01T16:35:10;0.20;;;0.20;;
54805;SDS011;62866;55.776;37.496;2023-03-01T16:37:37;0.30;;;0.30;;
54805;SDS011;62866;55.776;37.496;2023-03-01T16:40:04;0.73;;;0.43;;
54805;SDS011;62866;55.776;37.496;2023-03-01T16:42:34;0.77;;;0.30;;
54805;SDS011;62866;55.776;37.496;2023-03-01T16:45:00;5.65;;;0.65;;
54805;SDS011;62866;55.776;37.496;2023-03-01T16:47:26;1.02;;;0.80;;
54805;SDS011;62866;55.776;37.496;2023-03-01T16:49:53;0.65;;;0.55;;
54805;SDS011;62866;55.776;37.496;2023-03-01T16:52:19;0.93;;;0.50;;
54805;SDS011;62866;55.776;37.496;2023-03-01T16:54:45;0.93;;;0.50;;
54805;SDS011;62866;55.776;37.496;2023-03-01T16:57:11;1.40;;;0.20;;
54805;SDS011;62866;55.776;37.496;2023-03-01T16:59:37;1.63;;;0.65;;
54805;SDS011;62866;55.776;37.496;2023-03-01T17:02:03;0.65;;;0.57;;
54805;SDS011;62866;55.776;37.496;2023-03-01T17:04:29;2.00;;;0.40;;
54805;SDS011;62866;55.776;37.496;2023-03-01T17:06:54;0.20;;;0.20;;
54805;SDS011;62866;55.776;37.496;2023-03-01T17:09:20;0.57;;;0.57;;
54805;SDS011;62866;55.776;37.496;2023-03-01T17:11:47;1.13;;;0.60;;
54805;SDS011;62866;55.776;37.496;2023-03-01T17:14:14;0.63;;;0.30;;
54805;SDS011;62866;55.776;37.496;2023-03-01T17:16:41;1.73;;;0.60;;